Time;durP1;ratioP1;P1;durP2;ratioP2;P2;SDS_P1;SDS_P2;PMS_P1;PMS_P2;Temp;Humidity;BMP_temperature;BMP_pressure;BME280_temperature;BME280_humidity;BME280_pressure;Samples;Min_cycle;Max_cycle;Signal;HPM_P1;HPM_P2
2021/06/16 00:00:31;;;;;;;1999.90;999.90;;;18.50;99.90;;;;;;6313984;22;20421;-86
2021/06/16 00:02:58;;;;;;;1999.90;999.90;;;18.50;99.90;;;;;;6314941;22;20484;-85
2021/06/16 00:05:26;;;;;;;1999.90;999.90;;;18.50;99.90;;;;;;6313626;22;20448;-85
2021/06/16 00:07:55;;;;;;;1999.90;999.90;;;18.50;99.90;;;;;;6314715;22;20425;-86
2021/06/16 00:10:24;;;;;;;1999.90;999.90;;;18.40;99.90;;;;;;6313993;22;20409;-86
2021/06/16 00:12:51;;;;;;;1999.90;999.90;;;18.40;99.90;;;;;;6312260;22;20437;-86
2021/06/16 00:15:22;;;;;;;1999.90;999.90;;;18.40;99.90;;;;;;6311875;22;20406;-85
2021/06/16 00:17:49;;;;;;;1999.90;999.90;;;18.40;99.90;;;;;;6309307;22;20509;-86
2021/06/16 00:20:17;;;;;;;1999.90;999.90;;;18.40;99.90;;;;;;6310468;22;20523;-85
2021/06/16 00:22:44;;;;;;;1999.90;999.90;;;18.40;99.90;;;;;;6310215;22;20907;-86
2021/06/16 00:25:12;;;;;;;1999.90;999.90;;;18.40;99.90;;;;;;6310799;22;20778;-85
2021/06/16 00:27:39;;;;;;;1999.90;999.90;;;18.30;99.90;;;;;;6309227;22;20517;-86
2021/06/16 00:30:09;;;;;;;1999.90;999.90;;;18.30;99.90;;;;;;6308654;22;20527;-86
2021/06/16 00:32:35;;;;;;;1999.90;999.90;;;18.30;99.90;;;;;;6308766;22;20516;-86
2021/06/16 00:35:02;;;;;;;1999.90;999.90;;;18.30;99.90;;;;;;6309159;22;20470;-86
2021/06/16 00:37:29;;;;;;;1999.90;999.90;;;18.30;99.90;;;;;;6309082;22;20488;-85
2021/06/16 00:39:56;;;;;;;1999.90;999.90;;;18.30;99.90;;;;;;6307979;22;20428;-86
2021/06/16 00:42:24;;;;;;;1999.90;999.90;;;18.30;99.90;;;;;;6308195;22;20404;-87
2021/06/16 00:44:51;;;;;;;1999.90;999.90;;;18.20;99.90;;;;;;6307517;22;20477;-87
2021/06/16 00:47:19;;;;;;;1999.90;999.90;;;18.20;99.90;;;;;;6307509;22;20832;-86
2021/06/16 00:49:46;;;;;;;1999.90;999.90;;;18.20;99.90;;;;;;6307190;22;20496;-86
2021/06/16 00:52:13;;;;;;;1999.90;999.90;;;18.20;99.90;;;;;;6307629;22;20437;-87
2021/06/16 00:54:40;;;;;;;1999.90;999.90;;;18.20;99.90;;;;;;6307690;22;20834;-85
2021/06/16 00:57:08;;;;;;;1999.90;999.90;;;18.20;99.90;;;;;;6309399;22;20508;-86
2021/06/16 00:59:46;;;;;;;1999.90;999.90;;;18.20;99.90;;;;;;6309135;22;20449;-85
2021/06/16 01:02:14;;;;;;;1999.90;999.90;;;18.20;99.90;;;;;;6309479;22;20390;-86
2021/06/16 01:04:41;;;;;;;1999.90;999.90;;;18.20;99.90;;;;;;6309138;22;20444;-86
2021/06/16 01:07:12;;;;;;;1999.90;999.90;;;18.20;99.90;;;;;;6308972;22;20465;-86
2021/06/16 01:09:48;;;;;;;1999.90;999.90;;;18.20;99.90;;;;;;6309292;22;20390;-86
2021/06/16 01:12:22;;;;;;;1999.90;999.90;;;18.20;99.90;;;;;;6309715;22;20808;-86
2021/06/16 01:14:54;;;;;;;1999.90;999.90;;;18.10;99.90;;;;;;6308418;22;20417;-86
2021/06/16 01:17:23;;;;;;;1999.90;999.90;;;18.10;99.90;;;;;;6308875;22;20460;-86
2021/06/16 01:20:07;;;;;;;1999.90;999.90;;;18.10;99.90;;;;;;6310294;22;20900;-86
2021/06/16 01:22:41;;;;;;;1999.90;999.90;;;18.00;99.90;;;;;;6310376;22;20417;-86
2021/06/16 01:25:12;;;;;;;1999.90;999.90;;;18.00;99.90;;;;;;6310024;22;20733;-86
2021/06/16 01:27:40;;;;;;;1999.90;999.90;;;18.00;99.90;;;;;;6309496;22;20434;-86
2021/06/16 01:30:09;;;;;;;1999.90;999.90;;;18.00;99.90;;;;;;6309481;22;20405;-86
2021/06/16 01:32:36;;;;;;;1999.90;999.90;;;18.00;99.90;;;;;;6309355;22;20505;-86
2021/06/16 01:35:04;;;;;;;1999.90;999.90;;;18.00;99.90;;;;;;6309075;22;20416;-86
2021/06/16 01:37:31;;;;;;;1999.90;999.90;;;18.00;99.90;;;;;;6311064;22;20424;-86
2021/06/16 01:39:59;;;;;;;1276.80;999.90;;;18.00;99.90;;;;;;6313323;22;20535;-86
2021/06/16 01:42:28;;;;;;;1262.27;999.90;;;18.00;99.90;;;;;;6312420;22;20394;-86
2021/06/16 01:44:58;;;;;;;1306.00;999.90;;;17.90;99.90;;;;;;6312385;22;20421;-86
2021/06/16 01:47:25;;;;;;;1108.27;999.90;;;17.90;99.90;;;;;;6315798;22;20505;-86
2021/06/16 01:49:54;;;;;;;999.67;929.50;;;17.90;99.90;;;;;;6315639;22;20864;-86
2021/06/16 01:52:23;;;;;;;854.37;801.43;;;17.80;99.90;;;;;;6313931;22;20495;-86
2021/06/16 01:54:51;;;;;;;1141.67;999.90;;;17.80;99.90;;;;;;6312470;22;20493;-86
2021/06/16 01:57:19;;;;;;;939.10;874.87;;;17.80;99.90;;;;;;6310290;22;20515;-86
2021/06/16 01:59:47;;;;;;;787.57;737.70;;;17.80;99.90;;;;;;6312164;22;20426;-85
2021/06/16 02:02:15;;;;;;;537.03;507.63;;;17.70;99.90;;;;;;6314796;22;20962;-85
2021/06/16 02:04:42;;;;;;;686.53;648.17;;;17.70;99.90;;;;;;6316261;22;20485;-86
2021/06/16 02:07:13;;;;;;;554.03;524.77;;;17.70;99.90;;;;;;6315608;22;20501;-85
2021/06/16 02:09:41;;;;;;;302.10;286.23;;;17.70;99.90;;;;;;6312398;22;20952;-86
2021/06/16 02:12:12;;;;;;;137.13;127.23;;;17.70;99.90;;;;;;6312173;22;20524;-86
2021/06/16 02:14:42;;;;;;;132.07;122.50;;;17.70;99.90;;;;;;6314178;22;20473;-86
2021/06/16 02:17:11;;;;;;;60.70;51.60;;;17.60;99.90;;;;;;6315690;22;20502;-86
2021/06/16 02:19:42;;;;;;;42.63;21.60;;;17.60;99.90;;;;;;6316186;22;20505;-85
2021/06/16 02:22:10;;;;;;;32.07;9.83;;;17.60;99.90;;;;;;6317440;22;20803;-86
2021/06/16 02:24:38;;;;;;;31.37;10.27;;;17.50;99.90;;;;;;6317468;22;20445;-86
2021/06/16 02:27:06;;;;;;;36.43;8.87;;;17.50;99.90;;;;;;6317675;22;20458;-84
2021/06/16 02:29:34;;;;;;;28.90;13.10;;;17.50;99.90;;;;;;6320586;22;20434;-83
2021/06/16 02:32:01;;;;;;;26.47;7.60;;;17.50;99.90;;;;;;6321577;22;20442;-84
2021/06/16 02:34:29;;;;;;;21.23;5.73;;;17.40;99.90;;;;;;6320620;22;20433;-83
2021/06/16 02:37:00;;;;;;;24.20;6.00;;;17.40;99.90;;;;;;6321641;22;20437;-82
2021/06/16 02:39:33;;;;;;;20.27;3.63;;;17.40;99.90;;;;;;6322638;22;20417;-83
2021/06/16 02:42:01;;;;;;;16.80;3.23;;;17.30;99.90;;;;;;6322815;22;20395;-84
2021/06/16 02:44:29;;;;;;;20.57;3.80;;;17.30;99.90;;;;;;6323010;22;20437;-82
2021/06/16 02:46:57;;;;;;;16.63;3.40;;;17.30;99.90;;;;;;6323287;22;20465;-83
2021/06/16 02:49:29;;;;;;;15.67;3.60;;;17.20;99.90;;;;;;6321999;22;20820;-82
2021/06/16 02:51:59;;;;;;;16.53;3.93;;;17.20;99.90;;;;;;6320076;22;20413;-84
2021/06/16 02:54:27;;;;;;;14.90;3.17;;;17.10;99.90;;;;;;6318893;22;20459;-84
2021/06/16 02:56:55;;;;;;;16.50;3.53;;;17.10;99.90;;;;;;6323538;22;20464;-82
2021/06/16 02:59:23;;;;;;;14.60;3.17;;;17.10;99.90;;;;;;6327512;22;20441;-84
2021/06/16 03:01:50;;;;;;;18.57;3.40;;;17.10;99.90;;;;;;6321453;22;20421;-84
2021/06/16 03:04:21;;;;;;;15.50;3.90;;;17.10;99.90;;;;;;6315773;22;20453;-83
2021/06/16 03:06:49;;;;;;;13.90;3.40;;;17.10;99.90;;;;;;6317516;22;20421;-83
2021/06/16 03:09:19;;;;;;;13.80;3.43;;;17.10;99.90;;;;;;6316525;22;20469;-82
2021/06/16 03:11:47;;;;;;;16.63;3.97;;;17.00;99.90;;;;;;6317980;22;20960;-83
2021/06/16 03:14:14;;;;;;;11.80;2.97;;;17.10;99.90;;;;;;6316916;22;20843;-83
2021/06/16 03:16:42;;;;;;;16.23;2.90;;;17.10;99.90;;;;;;6317943;22;20426;-84
2021/06/16 03:19:10;;;;;;;13.10;3.60;;;17.00;99.90;;;;;;6316383;22;20473;-84
2021/06/16 03:21:37;;;;;;;14.20;4.13;;;17.00;99.90;;;;;;6317494;22;20436;-84
2021/06/16 03:24:05;;;;;;;12.80;3.90;;;16.90;99.90;;;;;;6317815;22;20406;-84
2021/06/16 03:26:33;;;;;;;12.20;3.90;;;16.90;99.90;;;;;;6319211;22;20429;-82
2021/06/16 03:29:01;;;;;;;12.57;3.77;;;16.90;99.90;;;;;;6331456;22;20394;-82
2021/06/16 03:31:28;;;;;;;11.53;3.60;;;16.90;99.90;;;;;;6332123;22;20426;-81
2021/06/16 03:33:56;;;;;;;14.57;4.37;;;16.90;99.90;;;;;;6323354;22;20462;-84
2021/06/16 03:36:23;;;;;;;12.30;3.60;;;16.90;99.90;;;;;;6322323;22;20741;-82
2021/06/16 03:38:51;;;;;;;15.13;4.00;;;16.90;99.90;;;;;;6323893;22;20445;-83
2021/06/16 03:41:20;;;;;;;17.40;4.17;;;17.00;99.90;;;;;;6322676;22;20452;-83
2021/06/16 03:43:51;;;;;;;14.37;3.70;;;17.00;99.90;;;;;;6323918;22;20422;-82
2021/06/16 03:46:19;;;;;;;11.30;3.80;;;17.00;99.90;;;;;;6323144;22;20803;-84
2021/06/16 03:48:47;;;;;;;12.43;4.00;;;17.00;99.90;;;;;;6322709;22;20445;-84
2021/06/16 03:51:14;;;;;;;13.43;4.20;;;17.00;99.90;;;;;;6325450;22;20755;-83
2021/06/16 03:53:43;;;;;;;14.30;4.60;;;17.00;99.90;;;;;;6323461;22;20441;-83
2021/06/16 03:56:11;;;;;;;12.23;4.10;;;17.00;99.90;;;;;;6321932;22;20425;-83
2021/06/16 03:58:40;;;;;;;13.33;4.20;;;17.10;99.90;;;;;;6323800;22;20405;-83
2021/06/16 04:01:12;;;;;;;13.80;4.20;;;17.10;99.90;;;;;;6324740;22;20473;-82
2021/06/16 04:03:39;;;;;;;15.23;4.60;;;17.20;99.90;;;;;;6324695;22;20386;-82
2021/06/16 04:06:07;;;;;;;11.80;4.03;;;17.20;99.90;;;;;;6324801;22;20473;-83
2021/06/16 04:08:36;;;;;;;14.40;4.40;;;17.30;99.90;;;;;;6323833;22;20516;-82
2021/06/16 04:11:03;;;;;;;11.17;3.40;;;17.30;99.90;;;;;;6323505;22;20488;-83
2021/06/16 04:13:30;;;;;;;17.40;5.00;;;17.30;99.90;;;;;;6324492;22;20501;-82
2021/06/16 04:15:57;;;;;;;11.20;4.33;;;17.30;99.90;;;;;;6325615;22;20405;-83
2021/06/16 04:18:25;;;;;;;12.60;4.40;;;17.40;99.90;;;;;;6325171;22;20445;-82
2021/06/16 04:20:52;;;;;;;12.73;4.50;;;17.40;99.90;;;;;;6325181;22;20402;-81
2021/06/16 04:23:19;;;;;;;11.97;4.67;;;17.40;99.90;;;;;;6325000;22;20409;-82
2021/06/16 04:25:46;;;;;;;12.60;5.40;;;17.50;99.90;;;;;;6325401;22;21143;-83
2021/06/16 04:28:12;;;;;;;11.00;4.10;;;17.50;99.90;;;;;;6325082;22;20484;-84
2021/06/16 04:30:39;;;;;;;14.97;4.57;;;17.60;99.90;;;;;;6324480;22;20410;-85
2021/06/16 04:33:08;;;;;;;15.03;7.13;;;17.60;99.90;;;;;;6324447;22;20451;-81
2021/06/16 04:35:37;;;;;;;15.93;5.57;;;17.70;99.90;;;;;;6326595;22;20488;-81
2021/06/16 04:38:04;;;;;;;12.90;4.97;;;17.70;99.90;;;;;;6326117;22;20516;-81
2021/06/16 04:40:30;;;;;;;12.80;5.90;;;17.70;99.90;;;;;;6326024;22;20426;-82
2021/06/16 04:42:57;;;;;;;8.20;1.43;;;17.80;99.90;;;;;;6321230;22;20408;-81
2021/06/16 04:45:24;;;;;;;8.27;1.80;;;18.10;99.90;;;;;;6318604;22;20441;-80
2021/06/16 04:47:51;;;;;;;13.93;3.93;;;18.60;99.90;;;;;;6318788;22;20426;-85
2021/06/16 04:50:18;;;;;;;14.30;5.10;;;18.70;99.90;;;;;;6325581;22;20437;-84
2021/06/16 04:52:46;;;;;;;15.37;5.10;;;18.60;99.90;;;;;;6326139;22;20452;-84
2021/06/16 04:55:14;;;;;;;11.80;4.30;;;18.60;99.90;;;;;;6326223;22;20417;-84
2021/06/16 04:57:41;;;;;;;15.27;5.50;;;18.50;99.90;;;;;;6325549;22;20457;-83
2021/06/16 05:00:10;;;;;;;13.50;5.53;;;18.60;99.90;;;;;;6325452;22;20568;-85
2021/06/16 05:02:37;;;;;;;12.40;5.27;;;18.60;99.90;;;;;;6325800;22;20438;-84
2021/06/16 05:05:04;;;;;;;11.90;5.10;;;18.60;99.90;;;;;;6325612;22;20402;-85
2021/06/16 05:07:31;;;;;;;12.50;4.43;;;18.60;99.90;;;;;;6326108;22;20454;-84
2021/06/16 05:09:59;;;;;;;13.43;5.67;;;18.60;99.90;;;;;;6325641;22;20409;-84
2021/06/16 05:12:26;;;;;;;14.00;5.80;;;18.60;99.90;;;;;;6325323;22;20413;-84
2021/06/16 05:14:53;;;;;;;13.93;5.63;;;18.60;99.90;;;;;;6323959;22;20441;-84
2021/06/16 05:17:20;;;;;;;14.93;5.47;;;18.70;99.90;;;;;;6324475;22;20446;-84
2021/06/16 05:19:47;;;;;;;12.23;5.80;;;18.70;99.90;;;;;;6324462;22;20496;-84
2021/06/16 05:22:15;;;;;;;15.60;5.70;;;18.70;99.90;;;;;;6324746;22;20440;-84
2021/06/16 05:24:44;;;;;;;14.00;5.93;;;18.80;99.90;;;;;;6323815;22;20477;-84
2021/06/16 05:27:17;;;;;;;12.70;6.00;;;18.80;99.90;;;;;;6323260;22;20494;-84
2021/06/16 05:29:44;;;;;;;15.03;5.33;;;18.90;99.90;;;;;;6313696;22;20398;-85
2021/06/16 05:32:10;;;;;;;14.07;5.47;;;19.00;99.90;;;;;;6310546;22;20626;-83
2021/06/16 05:34:38;;;;;;;13.43;5.20;;;19.10;99.90;;;;;;6319422;22;20528;-83
2021/06/16 05:37:07;;;;;;;14.47;4.60;;;19.20;99.90;;;;;;6321380;22;20437;-82
2021/06/16 05:39:34;;;;;;;12.83;5.60;;;19.30;99.90;;;;;;6320320;22;20410;-83
2021/06/16 05:42:01;;;;;;;12.10;6.10;;;19.40;99.90;;;;;;6326068;22;20410;-82
2021/06/16 05:44:29;;;;;;;13.63;5.00;;;19.40;99.90;;;;;;6325842;22;20406;-82
2021/06/16 05:46:56;;;;;;;12.97;5.77;;;19.60;99.90;;;;;;6326735;22;20424;-83
2021/06/16 05:49:23;;;;;;;13.27;6.17;;;19.70;99.90;;;;;;6324837;22;20426;-83
2021/06/16 05:51:49;;;;;;;12.93;5.30;;;19.80;99.90;;;;;;6327086;22;20457;-82
2021/06/16 05:54:16;;;;;;;22.77;6.03;;;19.90;99.90;;;;;;6327526;22;20468;-86
2021/06/16 05:56:44;;;;;;;12.57;5.40;;;20.00;99.90;;;;;;6328287;22;20455;-84
2021/06/16 05:59:10;;;;;;;12.00;5.50;;;20.00;99.90;;;;;;6327663;22;20409;-84
2021/06/16 06:01:39;;;;;;;19.47;7.20;;;20.10;99.90;;;;;;6327237;22;20416;-82
2021/06/16 06:04:07;;;;;;;15.23;6.97;;;20.20;99.90;;;;;;6327317;22;20382;-83
2021/06/16 06:06:35;;;;;;;15.10;6.20;;;20.00;99.90;;;;;;6328023;22;20438;-81
2021/06/16 06:09:01;;;;;;;14.67;6.27;;;20.20;99.90;;;;;;6327992;22;20410;-82
2021/06/16 06:11:29;;;;;;;14.87;5.37;;;20.40;99.90;;;;;;6327329;22;20406;-82
2021/06/16 06:13:56;;;;;;;13.60;5.20;;;20.50;99.90;;;;;;6325880;22;20457;-84
2021/06/16 06:16:23;;;;;;;16.77;5.93;;;20.70;99.90;;;;;;6326405;22;20405;-81
2021/06/16 06:18:51;;;;;;;23.38;13.70;;;20.90;99.90;;;;;;6322613;22;20393;-81
2021/06/16 06:21:18;;;;;;;17.53;5.67;;;21.10;99.90;;;;;;6319892;22;20184;-81
2021/06/16 06:23:45;;;;;;;18.63;6.77;;;21.30;99.90;;;;;;6319760;22;20409;-82
2021/06/16 06:26:12;;;;;;;15.80;6.27;;;21.40;99.90;;;;;;6322691;22;20441;-82
2021/06/16 06:28:40;;;;;;;14.47;4.90;;;21.50;99.90;;;;;;6322881;22;20583;-84
2021/06/16 06:31:07;;;;;;;14.93;5.40;;;21.50;99.90;;;;;;6322587;22;20410;-84
2021/06/16 06:33:34;;;;;;;18.17;5.10;;;21.50;99.90;;;;;;6330926;22;20453;-85
2021/06/16 06:36:02;;;;;;;18.70;4.90;;;21.60;99.90;;;;;;6316426;22;20497;-83
2021/06/16 06:38:29;;;;;;;19.50;5.10;;;21.60;99.90;;;;;;6310658;22;20449;-82
2021/06/16 06:40:56;;;;;;;14.17;5.90;;;21.60;99.90;;;;;;6315609;22;20460;-82
2021/06/16 06:43:23;;;;;;;16.50;6.00;;;21.70;99.90;;;;;;6310998;22;20484;-83
2021/06/16 06:45:52;;;;;;;17.07;4.50;;;21.60;99.90;;;;;;6311109;22;20402;-84
2021/06/16 06:48:19;;;;;;;15.50;4.80;;;21.70;99.90;;;;;;6309015;22;20465;-86
2021/06/16 06:50:46;;;;;;;15.80;5.33;;;21.80;99.90;;;;;;6309313;22;20394;-84
2021/06/16 06:53:16;;;;;;;14.60;4.43;;;21.90;99.90;;;;;;6311133;22;20998;-83
2021/06/16 06:55:43;;;;;;;15.67;4.73;;;22.00;99.90;;;;;;6310315;22;20394;-84
2021/06/16 06:58:12;;;;;;;13.97;5.40;;;22.00;99.90;;;;;;6308089;22;20429;-84
2021/06/16 07:00:39;;;;;;;14.23;4.23;;;22.10;99.90;;;;;;6309531;22;20408;-83
2021/06/16 07:03:06;;;;;;;16.10;4.13;;;22.20;99.90;;;;;;6309582;22;20489;-84
2021/06/16 07:05:33;;;;;;;17.27;5.13;;;22.30;99.90;;;;;;6310421;22;20407;-85
2021/06/16 07:08:00;;;;;;;16.70;4.50;;;22.40;99.90;;;;;;6308553;22;20835;-85
2021/06/16 07:10:29;;;;;;;22.67;5.07;;;22.50;99.90;;;;;;6301654;22;20481;-84
2021/06/16 07:13:02;;;;;;;21.87;5.47;;;22.60;99.90;;;;;;6293364;22;20402;-84
2021/06/16 07:15:29;;;;;;;22.53;5.40;;;22.70;99.90;;;;;;6309714;22;20445;-84
2021/06/16 07:17:56;;;;;;;22.13;5.40;;;22.70;99.90;;;;;;6307942;22;20453;-85
2021/06/16 07:20:22;;;;;;;20.03;4.43;;;22.70;99.90;;;;;;6308993;22;20743;-84
2021/06/16 07:22:49;;;;;;;35.53;15.33;;;22.80;99.90;;;;;;6309237;22;20414;-83
2021/06/16 07:25:17;;;;;;;124.10;114.97;;;23.00;99.90;;;;;;6303360;22;20480;-85
2021/06/16 07:27:46;;;;;;;69.43;62.60;;;23.00;99.90;;;;;;6311572;22;20464;-84
2021/06/16 07:30:14;;;;;;;88.73;80.80;;;23.10;99.90;;;;;;6318035;22;20410;-87
2021/06/16 07:32:41;;;;;;;281.03;265.00;;;23.20;99.90;;;;;;6311282;22;20493;-86
2021/06/16 07:35:10;;;;;;;1235.53;999.90;;;23.30;99.90;;;;;;6310477;22;20508;-87
2021/06/16 07:37:37;;;;;;;1174.03;999.90;;;23.40;99.90;;;;;;6311071;22;20440;-85
2021/06/16 07:40:08;;;;;;;913.77;854.33;;;23.50;99.90;;;;;;6310025;22;20405;-85
2021/06/16 07:42:35;;;;;;;199.43;186.90;;;23.70;99.90;;;;;;6311513;22;20397;-85
2021/06/16 07:45:03;;;;;;;560.37;519.17;;;23.80;99.90;;;;;;6310877;22;20406;-85
2021/06/16 07:47:30;;;;;;;1177.70;999.90;;;23.90;99.90;;;;;;6308420;22;20508;-85
2021/06/16 07:49:57;;;;;;;815.87;762.67;;;24.00;99.90;;;;;;6308373;22;20508;-88
2021/06/16 07:52:24;;;;;;;1111.73;956.97;;;24.10;99.90;;;;;;6302915;22;20496;-89
2021/06/16 07:54:50;;;;;;;1168.13;999.90;;;24.30;99.90;;;;;;6306054;22;20438;-85
2021/06/16 07:57:18;;;;;;;882.60;755.83;;;24.40;99.90;;;;;;6308478;22;20529;-88
2021/06/16 07:59:44;;;;;;;1999.90;999.90;;;24.50;99.90;;;;;;6307057;22;20484;-83
2021/06/16 08:02:13;;;;;;;1999.90;999.90;;;24.70;99.90;;;;;;6310058;22;20493;-85
2021/06/16 08:04:41;;;;;;;1999.90;999.90;;;24.90;99.90;;;;;;6305251;22;20412;-85
2021/06/16 08:07:10;;;;;;;1394.17;904.63;;;25.00;99.90;;;;;;6306867;22;20434;-85
2021/06/16 08:09:39;;;;;;;1999.90;999.90;;;25.20;99.90;;;;;;6304907;22;20449;-86
2021/06/16 08:12:08;;;;;;;1999.90;999.90;;;25.30;99.90;;;;;;6304794;22;20589;-87
2021/06/16 08:14:34;;;;;;;1999.90;999.90;;;25.50;99.90;;;;;;6307771;22;20777;-85
2021/06/16 08:17:01;;;;;;;1999.90;999.90;;;25.70;99.90;;;;;;6309409;22;20465;-84
2021/06/16 08:19:29;;;;;;;1999.90;999.90;;;25.80;99.90;;;;;;6317487;22;20406;-86
2021/06/16 08:21:57;;;;;;;1999.90;999.90;;;25.80;99.90;;;;;;6325380;22;20414;-87
2021/06/16 08:24:24;;;;;;;1999.90;999.90;;;25.80;99.90;;;;;;6308577;22;20408;-85
2021/06/16 08:26:51;;;;;;;1999.90;999.90;;;25.80;99.90;;;;;;6310286;22;20437;-85
2021/06/16 08:29:18;;;;;;;1433.03;755.57;;;25.90;99.90;;;;;;6309054;22;20390;-83
2021/06/16 08:31:45;;;;;;;1168.40;782.67;;;26.00;99.90;;;;;;6310936;22;20441;-84
2021/06/16 08:34:11;;;;;;;1239.07;999.90;;;26.10;99.90;;;;;;6309514;22;20549;-83
2021/06/16 08:36:41;;;;;;;825.10;447.37;;;26.30;99.90;;;;;;6310081;22;20505;-84
2021/06/16 08:39:09;;;;;;;425.37;392.73;;;26.50;99.90;;;;;;6309348;22;20497;-85
2021/06/16 08:41:36;;;;;;;1054.63;978.37;;;26.50;99.90;;;;;;6309808;22;20489;-85
2021/06/16 08:44:03;;;;;;;814.00;751.07;;;26.70;99.90;;;;;;6309371;22;20402;-88
2021/06/16 08:46:31;;;;;;;344.40;325.47;;;26.90;99.90;;;;;;6309761;22;20880;-84
2021/06/16 08:48:59;;;;;;;1065.20;952.57;;;27.00;99.90;;;;;;6308843;22;20537;-84
2021/06/16 08:51:25;;;;;;;353.60;336.10;;;26.90;99.90;;;;;;6309109;22;20413;-84
2021/06/16 08:53:54;;;;;;;982.57;920.53;;;27.30;99.90;;;;;;6310455;22;20852;-85
2021/06/16 08:56:20;;;;;;;181.13;168.97;;;27.50;99.90;;;;;;6309914;22;20802;-83
2021/06/16 08:58:47;;;;;;;1159.57;999.90;;;27.50;99.90;;;;;;6309805;22;20402;-84
2021/06/16 09:01:15;;;;;;;397.20;376.37;;;27.70;99.90;;;;;;6310080;22;20405;-85
2021/06/16 09:03:42;;;;;;;366.93;345.33;;;27.80;99.90;;;;;;6310137;22;20410;-84
2021/06/16 09:06:11;;;;;;;22.43;5.70;;;27.90;99.90;;;;;;6309253;22;20501;-85
2021/06/16 09:08:54;;;;;;;885.10;830.07;;;27.80;99.90;;;;;;6309267;22;20434;-88
2021/06/16 09:11:22;;;;;;;104.30;96.93;;;28.20;99.90;;;;;;6310094;22;20429;-84
2021/06/16 09:13:49;;;;;;;23.57;5.73;;;28.30;99.90;;;;;;6309578;22;20955;-83
2021/06/16 09:16:27;;;;;;;156.33;145.37;;;28.40;99.90;;;;;;6310740;22;20410;-86
2021/06/16 09:18:54;;;;;;;121.87;113.67;;;28.60;99.90;;;;;;6320011;22;20459;-84
2021/06/16 09:21:33;;;;;;;524.20;492.67;;;28.80;99.90;;;;;;6312481;22;20452;-86
2021/06/16 09:24:01;;;;;;;375.70;351.80;;;28.90;99.90;;;;;;6311577;22;20477;-84
2021/06/16 09:26:31;;;;;;;13.40;6.90;;;29.00;99.90;;;;;;6311247;22;20469;-84
2021/06/16 09:28:58;;;;;;;36.73;31.63;;;29.00;99.90;;;;;;6310586;22;21001;-84
2021/06/16 09:31:25;;;;;;;47.80;43.90;;;29.30;99.90;;;;;;6312786;22;20449;-84
2021/06/16 09:33:54;;;;;;;20.10;5.20;;;29.40;99.90;;;;;;6317146;22;20457;-87
2021/06/16 09:36:23;;;;;;;9.60;3.43;;;29.60;99.90;;;;;;6325743;22;20465;-83
2021/06/16 09:38:51;;;;;;;10.37;4.00;;;29.70;99.90;;;;;;6324196;22;20441;-84
2021/06/16 09:41:21;;;;;;;9.60;4.10;;;29.70;99.90;;;;;;6325795;22;20727;-84
2021/06/16 09:43:49;;;;;;;9.87;4.50;;;29.80;99.90;;;;;;6324193;22;20437;-83
2021/06/16 09:46:16;;;;;;;14.63;4.33;;;29.80;99.90;;;;;;6318450;22;20405;-84
2021/06/16 09:48:44;;;;;;;9.70;4.00;;;29.90;99.90;;;;;;6324299;22;20786;-85
2021/06/16 09:51:19;;;;;;;10.13;4.17;;;30.20;99.90;;;;;;6322006;22;20745;-80
2021/06/16 09:54:13;;;;;;;10.13;4.53;;;30.40;99.90;;;;;;6312635;22;20417;-85
2021/06/16 09:56:43;;;;;;;9.77;4.30;;;30.60;99.90;;;;;;6312436;22;20436;-85
2021/06/16 09:59:10;;;;;;;10.23;5.07;;;30.50;99.90;;;;;;6312466;22;20485;-85
2021/06/16 10:01:54;;;;;;;9.53;4.20;;;30.90;99.90;;;;;;6313311;22;20432;-83
2021/06/16 10:04:35;;;;;;;10.40;4.60;;;31.30;99.90;;;;;;6315596;22;20386;-85
2021/06/16 10:07:26;;;;;;;11.37;4.70;;;30.80;99.90;;;;;;6325594;22;20432;-81
2021/06/16 10:09:57;;;;;;;10.23;4.27;;;31.00;99.90;;;;;;6291769;22;20426;-83
2021/06/16 10:12:27;;;;;;;8.70;4.53;;;31.40;99.90;;;;;;6312882;22;20418;-83
2021/06/16 10:14:54;;;;;;;9.00;5.00;;;31.70;99.90;;;;;;6313256;22;20560;-82
2021/06/16 10:17:21;;;;;;;12.80;5.17;;;31.80;99.90;;;;;;6312562;22;20422;-82
2021/06/16 10:19:50;;;;;;;10.37;5.23;;;32.30;99.90;;;;;;6312066;22;20874;-82
2021/06/16 10:22:17;;;;;;;11.03;4.50;;;32.10;99.90;;;;;;6314153;22;20788;-82
2021/06/16 10:24:45;;;;;;;7.77;4.50;;;32.40;99.90;;;;;;6316781;22;20402;-82
2021/06/16 10:27:17;;;;;;;10.53;4.90;;;32.60;99.90;;;;;;6321404;22;20464;-82
2021/06/16 10:29:49;;;;;;;9.80;4.80;;;32.80;99.90;;;;;;6321848;22;20425;-82
2021/06/16 10:32:17;;;;;;;8.17;4.13;;;32.90;99.90;;;;;;6322882;22;20416;-82
2021/06/16 10:35:01;;;;;;;8.67;4.53;;;33.20;99.90;;;;;;6319373;22;21021;-82
2021/06/16 10:37:30;;;;;;;12.90;4.53;;;33.30;99.90;;;;;;6319135;22;20422;-80
2021/06/16 10:40:28;;;;;;;12.63;5.50;;;33.30;99.90;;;;;;6318986;22;20413;-83
2021/06/16 10:43:28;;;;;;;11.40;5.30;;;33.20;99.90;;;;;;6196599;23;20402;-80
2021/06/16 10:46:05;;;;;;;10.43;5.47;;;33.60;99.90;;;;;;6317509;22;20485;-83
2021/06/16 10:49:04;;;;;;;9.13;4.97;;;33.60;99.90;;;;;;6319510;22;20422;-83
2021/06/16 10:51:42;;;;;;;11.93;5.00;;;33.50;99.90;;;;;;6308728;22;20390;-83
2021/06/16 10:54:28;;;;;;;10.97;4.60;;;33.60;99.90;;;;;;6307746;22;20392;-82
2021/06/16 10:57:09;;;;;;;13.93;5.67;;;33.60;99.90;;;;;;6309178;22;20430;-81
2021/06/16 11:00:13;;;;;;;10.67;5.33;;;33.00;99.90;;;;;;6308906;22;20386;-80
2021/06/16 11:03:03;;;;;;;10.00;4.70;;;33.10;99.90;;;;;;6314378;22;20398;-81
2021/06/16 11:05:35;;;;;;;8.27;4.97;;;33.50;99.90;;;;;;6312175;22;20428;-82
2021/06/16 11:08:03;;;;;;;9.30;5.20;;;33.80;99.90;;;;;;6313742;22;20425;-82
2021/06/16 11:10:56;;;;;;;14.03;6.20;;;34.00;99.90;;;;;;6310909;22;20406;-81
2021/06/16 11:13:40;;;;;;;8.73;5.03;;;34.20;99.90;;;;;;6309388;22;20739;-80
2021/06/16 11:16:53;;;;;;;10.40;5.43;;;34.50;99.90;;;;;;6309735;22;20447;-81
2021/06/16 11:19:26;;;;;;;8.17;4.80;;;34.80;99.90;;;;;;6307879;22;20425;-81
2021/06/16 11:21:55;;;;;;;9.37;5.40;;;34.90;99.90;;;;;;6308291;22;20485;-80
2021/06/16 11:24:22;;;;;;;13.93;5.63;;;35.30;99.90;;;;;;6309789;22;20489;-80
2021/06/16 11:26:50;;;;;;;7.70;4.50;;;35.20;99.90;;;;;;6309215;22;20512;-80
2021/06/16 11:29:54;;;;;;;8.17;5.30;;;35.10;99.90;;;;;;6308539;22;20402;-81
2021/06/16 11:32:21;;;;;;;8.83;5.17;;;35.50;99.90;;;;;;6308768;22;20488;-80
2021/06/16 11:34:50;;;;;;;11.73;5.10;;;35.80;99.90;;;;;;6308206;22;20950;-80
2021/06/16 11:37:50;;;;;;;10.93;5.50;;;36.20;99.90;;;;;;6309568;22;20508;-82
2021/06/16 11:40:19;;;;;;;7.50;4.73;;;36.50;99.90;;;;;;6309276;22;20416;-81
2021/06/16 11:42:46;;;;;;;9.40;4.73;;;36.90;99.90;;;;;;6311930;22;20429;-81
2021/06/16 11:45:13;;;;;;;9.40;4.90;;;37.40;99.90;;;;;;6311002;22;20402;-82
2021/06/16 11:47:41;;;;;;;6.83;4.80;;;37.10;99.90;;;;;;6311198;22;20425;-80
2021/06/16 11:50:10;;;;;;;9.67;5.60;;;37.10;99.90;;;;;;6311105;22;20484;-80
2021/06/16 11:52:37;;;;;;;12.03;5.60;;;37.50;99.90;;;;;;6311862;22;20488;-80
2021/06/16 11:55:05;;;;;;;9.93;5.20;;;37.50;99.90;;;;;;6311241;22;20445;-81
2021/06/16 11:57:32;;;;;;;10.23;5.97;;;37.60;99.90;;;;;;6309383;22;21201;-80
2021/06/16 11:59:59;;;;;;;8.57;5.67;;;37.00;99.90;;;;;;6307217;22;20437;-80
2021/06/16 12:02:27;;;;;;;9.80;5.23;;;36.10;99.90;;;;;;6308381;22;20398;-81
2021/06/16 12:04:55;;;;;;;10.20;5.37;;;36.10;99.90;;;;;;6302011;22;20412;-81
2021/06/16 12:07:29;;;;;;;9.50;5.30;;;36.40;99.90;;;;;;6308384;22;20994;-81
2021/06/16 12:09:57;;;;;;;9.27;5.30;;;37.00;99.90;;;;;;6310067;22;20461;-80
2021/06/16 12:12:25;;;;;;;8.90;5.27;;;37.60;99.90;;;;;;6312654;22;20402;-81
2021/06/16 12:15:07;;;;;;;8.90;5.00;;;37.60;99.90;;;;;;6310638;22;20985;-81
2021/06/16 12:17:34;;;;;;;10.70;4.60;;;37.80;99.90;;;;;;6311857;22;21207;-81
2021/06/16 12:20:06;;;;;;;7.43;4.63;;;37.80;99.90;;;;;;6311801;22;20797;-81
2021/06/16 12:22:34;;;;;;;9.73;5.00;;;38.20;99.90;;;;;;6313823;22;20401;-81
2021/06/16 12:25:01;;;;;;;7.17;3.57;;;38.00;99.00;;;;;;6312059;22;20430;-81
2021/06/16 12:27:33;;;;;;;6.80;4.30;;;38.20;99.90;;;;;;6311045;22;20505;-81
2021/06/16 12:30:01;;;;;;;7.77;4.17;;;38.40;95.40;;;;;;6309405;22;20390;-82
2021/06/16 12:32:31;;;;;;;5.80;3.40;;;38.20;92.40;;;;;;6310348;22;20452;-81
2021/06/16 12:35:08;;;;;;;6.00;3.80;;;37.80;96.50;;;;;;6304831;22;20398;-81
2021/06/16 12:37:47;;;;;;;6.00;4.03;;;38.10;96.80;;;;;;6309249;22;20907;-81